Nelson, New Zealand
Current Conditions -  °F | °C
As of 3:30 PM on Wednesday 22 Oct 2014 (Local Time) from NZWN Reporting Station
Clear Clear  
Wind Chill: 59°   Ceiling: Unl
Heat Index: 59°   Visibility: 6mi
Dew Point: 48°   Wind: 9mph
Humidity: 67%   Direction: 170°S
Pressure: 30.09"   Gusts: NA
Location:  41.27°S, 173.28°E
Report Text: NZWN 220330Z AUTO 17008KT 130V200 9999 NCD 15/09 Q1019 NOSIG
Loading
Personal Weather Stations






























Interactive Weather Map
Tropical Storm Tracking
New forecast layout! Learn more

10-Day Weather Forecast

Advertisements
Track Severe Weather on mobile